METAR Data
IDs: Format: Raw Decoded Include TAF

Data at: 0105 UTC 06 Dec 2019

KMEM 060054Z 15008KT 10SM SCT110 BKN150 14/03 A3005 RMK AO2 SLP176 T01440033 $
KMEM 052354Z 15004KT 10SM BKN170 14/03 A3005 RMK AO2 SLP177 T01440028 10172 20144 53003
KMEM 052254Z 14005KT 10SM BKN130 BKN180 16/02 A3004 RMK AO2 SLP173 T01560022
KMEM 052154Z 18008KT 10SM FEW050 SCT090 BKN120 BKN180 16/02 A3005 RMK AO2 SLP176 T01610017
KMEM 052054Z 17009KT 10SM SCT090 BKN120 BKN180 17/01 A3005 RMK AO2 SLP173 T01670011 56015
KMEM 051954Z 17008KT 10SM SCT090 BKN120 BKN180 17/02 A3005 RMK AO2 SLP176 T01670022
KMEM 051854Z 17008KT 10SM BKN130 OVC180 16/02 A3007 RMK AO2 SLP180 T01610017
KMEM 051754Z 18013KT 10SM SCT130 BKN180 16/02 A3009 RMK AO2 SLP189 T01610022 10161 20061 58009
KMEM 051654Z 18008KT 10SM BKN110 BKN200 14/03 A3012 RMK AO2 SLP198 T01390028
KMEM 051554Z 16005KT 10SM FEW095 BKN120 12/03 A3012 RMK AO2 SLP200 T01220033
KMEM 051454Z VRB03KT 10SM FEW100 BKN150 11/04 A3012 RMK AO2 SLP199 T01110039 51009
KMEM 051354Z 00000KT 10SM FEW130 BKN160 08/03 A3011 RMK AO2 SLP196 T00780033
KMEM 051254Z 09003KT 10SM SCT130 BKN170 07/03 A3010 RMK AO2 SLP194 T00720028
KMEM 051154Z COR VRB03KT 10SM OVC170 06/02 A3009 RMK AO2 SLP189 T00610022 10089 20056 53010
KMEM 051054Z 23003KT 10SM FEW150 BKN200 06/03 A3007 RMK AO2 SLP184 T00610028
KMEM 050954Z 00000KT 10SM FEW180 BKN210 06/03 A3006 RMK AO2 SLP179 T00610028
KMEM 050854Z 00000KT 10SM BKN190 07/03 A3006 RMK AO2 SLP178 T00720028 53008
KMEM 050754Z 00000KT 10SM OVC190 07/02 A3005 RMK AO2 SLP173 T00720022
KMEM 050654Z 20003KT 10SM BKN190 07/03 A3004 RMK AO2 SLP171 T00720028
KMEM 050554Z 00000KT 10SM BKN190 08/02 A3004 RMK AO2 SLP171 T00780017 10122 20067 401610011 51004
KMEM 050454Z 00000KT 10SM BKN200 08/02 A3003 RMK AO2 SLP169 T00780022
KMEM 050354Z 00000KT 10SM BKN200 08/02 A3003 RMK AO2 SLP169 T00780022
KMEM 050254Z 00000KT 10SM BKN200 08/02 A3002 RMK AO2 SLP167 T00830017 50005
KMEM 050154Z 00000KT 10SM BKN230 09/02 A3003 RMK AO2 SLP168 T00890022
KMEM 050054Z VRB04KT 10SM SCT250 08/02 A3002 RMK AO2 SLP166 T00830017
KMEM 042354Z 00000KT 10SM SCT230 12/01 A3001 RMK AO2 SLP163 T01220006 10161 20122 53007
KMEM 042254Z 27003KT 10SM SCT250 13/01 A3000 RMK AO2 SLP158 T01280006
KMEM 042154Z 31007KT 10SM SCT250 14/01 A2999 RMK AO2 SLP156 T01440006
KMEM 042054Z 29007KT 10SM SCT250 16/01 A2999 RMK AO2 SLP155 T01560006 55005
KMEM 041954Z 32008KT 10SM SCT250 16/01 A2997 RMK AO2 SLP150 T01560011
KMEM 041854Z 31010KT 10SM FEW250 16/01 A2998 RMK AO2 SLP153 T01560011 $
KMEM 041754Z 33005KT 10SM FEW250 14/02 A3000 RMK AO2 SLP160 T01440017 10144 20011 58006
KMEM 041654Z 30006KT 10SM FEW250 13/02 A3002 RMK AO2 SLP167 T01280022
KMEM 041554Z 31007KT 10SM FEW250 11/02 A3003 RMK AO2 SLP170 T01060017
KMEM 041454Z 30009KT 10SM FEW250 08/02 A3002 RMK AO2 SLP166 T00830022 53025
KMEM 041354Z 00000KT 10SM FEW250 04/02 A2999 RMK AO2 SLP155 T00440017